Airfield :
LOGIN :

Register | Disclaimer

   EN    FR    IT 

 










Legend :    VFR   Marginal VFR   IFR   Intensive IFR   Very Intensive IFR
Visi :
Ceiling :
>= 8 km
>= 3000ft
5 to 8 km
1000 to 3000 ft
1500m to 5 km
500 to 1000 ft
800 to 1500m
200 to 500 ft
< 800m
< 200 ft
Symbols :   Thunderstorms  Fog  Heavy snow  Heavy precipitations  Wind > 20 kt
SIGMETs :     Misc.  Thunderstorms  Icing  Turbulence  Mountain Waves  Volcanic Ashes







- Airport Elevation : 870 ft
- IATA code : ETZ
- Download approach charts


LFJL - Metz Nancy Lorraine

CURRENT METAR :
  • 190230Z AUTO 24014KT 9999 BKN009 OVC015 05/04 Q1017 TEMPO 4000 RA BECMG 30010KT SCT020 BKN030

EXPIRED METARs :
  • 190200Z AUTO 24016KT 9999 -RA BKN008 OVC017 05/04 Q1017 BECMG 25015G25KT 4000 RA
  • 190130Z AUTO 23015KT 9999 -RA OVC009/// ///TCU 05/04 Q1017 BECMG 25015G25KT 4000 RA BKN008 BKN020
  • 190100Z AUTO 23015KT 9999 -RA OVC008/// ///TCU 05/04 Q1017 BECMG 25015G25KT 4000 RA BKN008 BKN020
  • 190030Z AUTO 23016KT 9000 -RA OVC008/// ///TCU 05/04 Q1018 BECMG 25015G25KT 4000 RA BKN008 BKN020
  • 190000Z AUTO 22013KT 6000 -RA OVC007/// ///TCU 05/04 Q1018 BECMG 25015G25KT 4000 RA BKN008 BKN020

TAF TAF LFJL
Valid from the 19 at 00:00 until the 20 at 00:00 UTC


182300Z 1900/1924 25015G25KT 4000 RA BKN008 BKN020
BECMG 1904/1906 30010KT 9999 NSW SCT020 BKN030
PROB40
TEMPO 1906/1910 4000 SHRA BKN012 FEW020TCU
BECMG 1915/1918 24005KT
No reported NOTAMs for that airfield.



MET'MAP, your aeronautical weather chart ! - Copyright ORBIFLY December 2007 - Disclaimer

ORBIFLY MET'MAP TEAM :

Programming & Development : Alexandra Zaïnal
Concept & Development : Baudouin d'Aumeries
Co-Development & Prog : Marc-Olivier Méhu
Technical & hardware support : Manuel Goepfert

Contact : metmap@orbifly.com




SOURCES & CREDITS :

   NOAA